createdAt,value
2023-04-27T00:02:09.427Z,5.90
2023-04-27T00:04:37.876Z,5.68
2023-04-27T00:07:05.927Z,5.84
2023-04-27T00:09:33.785Z,7.53
2023-04-27T00:12:01.942Z,8.72
2023-04-27T00:14:29.755Z,7.98
2023-04-27T00:16:57.550Z,7.23
2023-04-27T00:19:25.301Z,6.71
2023-04-27T00:21:53.123Z,6.35
2023-04-27T00:24:21.177Z,6.09
2023-04-27T00:26:48.935Z,5.87
2023-04-27T00:29:16.709Z,5.69
2023-04-27T00:31:44.503Z,6.01
2023-04-27T00:34:12.275Z,7.83
2023-04-27T00:36:40.054Z,8.95
2023-04-27T00:39:08.136Z,8.19
2023-04-27T00:41:42.158Z,7.42
2023-04-27T00:44:09.982Z,6.89
2023-04-27T00:46:37.745Z,6.54
2023-04-27T00:49:05.550Z,6.26
2023-04-27T00:51:33.374Z,6.06
2023-04-27T00:54:01.698Z,6.20
2023-04-27T00:56:29.547Z,7.91
2023-04-27T00:58:57.327Z,9.11
2023-04-27T01:01:25.252Z,8.42
2023-04-27T01:03:53.560Z,7.63
2023-04-27T01:06:21.533Z,7.12
2023-04-27T01:08:49.998Z,6.76
2023-04-27T01:11:17.826Z,6.48
2023-04-27T01:13:46.304Z,6.27
2023-04-27T01:16:14.264Z,6.56
2023-04-27T01:18:42.073Z,8.33
2023-04-27T01:21:10.404Z,9.45
2023-04-27T01:23:38.390Z,8.70
2023-04-27T01:26:06.219Z,7.90
2023-04-27T01:28:33.985Z,7.38
2023-04-27T01:31:01.753Z,7.03
2023-04-27T01:33:29.538Z,6.75
2023-04-27T01:35:57.314Z,6.54
2023-04-27T01:38:25.108Z,6.36
2023-04-27T01:40:55.228Z,6.58
2023-04-27T01:43:23.017Z,8.35
2023-04-27T01:45:50.934Z,9.50
2023-04-27T01:48:18.811Z,8.81
2023-04-27T01:50:46.777Z,8.04
2023-04-27T01:53:14.558Z,7.52
2023-04-27T01:55:42.402Z,7.17
2023-04-27T01:58:10.189Z,6.90
2023-04-27T02:00:38.000Z,6.70
2023-04-27T02:03:06.161Z,6.52
2023-04-27T02:05:34.030Z,6.78
2023-04-27T02:08:01.907Z,8.57
2023-04-27T02:10:29.728Z,9.69
2023-04-27T02:12:57.591Z,8.98
2023-04-27T02:15:25.415Z,8.19
2023-04-27T02:17:53.247Z,7.65
2023-04-27T02:20:21.105Z,7.29
2023-04-27T02:22:48.931Z,7.01
2023-04-27T02:25:17.043Z,6.79
2023-04-27T02:27:44.941Z,7.01
2023-04-27T02:30:13.776Z,8.76
2023-04-27T02:32:42.301Z,9.88
2023-04-27T02:35:10.370Z,9.14
2023-04-27T02:37:38.213Z,8.33
2023-04-27T02:40:08.075Z,7.81
2023-04-27T02:42:35.906Z,7.43
2023-04-27T02:45:05.522Z,7.15
2023-04-27T02:47:33.273Z,6.92
2023-04-27T02:50:01.907Z,7.31
2023-04-27T02:52:29.796Z,9.15
2023-04-27T02:54:57.829Z,10.11
2023-04-27T02:57:25.839Z,9.29
2023-04-27T02:59:53.687Z,8.46
2023-04-27T03:02:21.550Z,7.89
2023-04-27T03:04:55.013Z,7.50
2023-04-27T03:07:23.037Z,7.19
2023-04-27T03:09:51.172Z,7.33
2023-04-27T03:12:19.262Z,9.02
2023-04-27T03:14:47.145Z,10.06
2023-04-27T03:17:15.044Z,9.30
2023-04-27T03:19:42.875Z,8.49
2023-04-27T03:22:10.805Z,7.92
2023-04-27T03:24:38.667Z,7.52
2023-04-27T03:27:06.490Z,7.22
2023-04-27T03:29:34.299Z,6.98
2023-04-27T03:32:04.194Z,7.30
2023-04-27T03:34:32.034Z,9.11
2023-04-27T03:36:59.822Z,10.09
2023-04-27T03:39:27.774Z,9.27
2023-04-27T03:41:55.502Z,8.46
2023-04-27T03:44:24.084Z,7.92
2023-04-27T03:46:51.971Z,7.52
2023-04-27T03:49:19.821Z,7.24
2023-04-27T03:51:47.639Z,6.99
2023-04-27T03:54:15.447Z,7.37
2023-04-27T03:56:44.549Z,9.14
2023-04-27T03:59:13.223Z,10.15
2023-04-27T04:01:41.400Z,9.35
2023-04-27T04:04:09.427Z,8.53
2023-04-27T04:06:37.462Z,7.98
2023-04-27T04:09:05.636Z,7.59
2023-04-27T04:11:33.855Z,7.31
2023-04-27T04:14:01.669Z,7.54
2023-04-27T04:16:29.559Z,9.32
2023-04-27T04:18:57.310Z,10.30
2023-04-27T04:21:25.061Z,9.50
2023-04-27T04:23:52.938Z,8.72
2023-04-27T04:26:23.517Z,8.17
2023-04-27T04:28:52.441Z,7.78
2023-04-27T04:31:21.719Z,7.50
2023-04-27T04:33:49.621Z,7.82
2023-04-27T04:36:17.465Z,9.58
2023-04-27T04:38:45.205Z,10.59
2023-04-27T04:41:13.004Z,9.81
2023-04-27T04:43:40.922Z,9.03
2023-04-27T04:46:08.784Z,8.49
2023-04-27T04:48:36.889Z,8.12
2023-04-27T04:51:07.084Z,7.84
2023-04-27T04:53:34.856Z,8.21
2023-04-27T04:56:13.743Z,10.03
2023-04-27T04:58:41.651Z,10.88
2023-04-27T05:01:09.640Z,10.02
2023-04-27T05:03:37.805Z,9.26
2023-04-27T05:06:06.525Z,8.75
2023-04-27T05:08:34.372Z,8.40
2023-04-27T05:11:02.142Z,8.12
2023-04-27T05:13:29.952Z,8.46
2023-04-27T05:15:57.839Z,10.26
2023-04-27T05:18:25.753Z,11.17
2023-04-27T05:20:53.493Z,10.38
2023-04-27T05:23:21.299Z,9.61
2023-04-27T05:25:49.088Z,9.10
2023-04-27T05:28:16.898Z,8.73
2023-04-27T05:30:44.749Z,8.47
2023-04-27T05:33:12.749Z,8.65
2023-04-27T05:35:40.655Z,10.34
2023-04-27T05:38:08.467Z,11.26
2023-04-27T05:40:36.298Z,10.49
2023-04-27T05:43:05.716Z,9.78
2023-04-27T05:45:33.803Z,9.30
2023-04-27T05:48:01.793Z,8.97
2023-04-27T05:50:29.701Z,8.72
2023-04-27T05:53:01.663Z,8.52
2023-04-27T05:55:29.858Z,9.13
2023-04-27T05:58:06.914Z,11.01
2023-04-27T06:00:37.023Z,11.87
2023-04-27T06:03:05.113Z,11.04
2023-04-27T06:05:34.459Z,10.32
2023-04-27T06:08:02.494Z,9.86
2023-04-27T06:10:30.478Z,9.55
2023-04-27T06:12:58.230Z,9.32
2023-04-27T06:15:26.041Z,9.14
2023-04-27T06:17:53.964Z,8.97
2023-04-27T06:20:22.241Z,8.94
2023-04-27T06:22:50.128Z,10.28
2023-04-27T06:25:18.006Z,11.63
2023-04-27T06:27:45.957Z,11.14
2023-04-27T06:30:14.015Z,10.52
2023-04-27T06:32:41.868Z,10.12
2023-04-27T06:35:10.653Z,9.87
2023-04-27T06:37:39.170Z,9.70
2023-04-27T06:40:08.281Z,9.60
2023-04-27T06:42:36.338Z,9.54
2023-04-27T06:45:05.673Z,9.50
2023-04-27T06:47:33.816Z,9.47
2023-04-27T06:50:01.664Z,9.45
2023-04-27T06:52:33.151Z,9.44
2023-04-27T06:55:01.105Z,9.48
2023-04-27T06:57:29.029Z,9.60
2023-04-27T06:59:57.177Z,9.71
2023-04-27T07:02:25.694Z,9.75
2023-04-27T07:04:53.885Z,9.76
2023-04-27T07:07:22.033Z,9.73
2023-04-27T07:09:50.095Z,9.69
2023-04-27T07:12:17.863Z,9.66
2023-04-27T07:14:45.808Z,9.64
2023-04-27T07:17:13.697Z,9.62
2023-04-27T07:19:41.825Z,9.61
2023-04-27T07:22:10.244Z,9.63
2023-04-27T07:24:38.185Z,9.65
2023-04-27T07:27:07.597Z,9.69
2023-04-27T07:29:38.434Z,9.75
2023-04-27T07:32:08.031Z,9.82
2023-04-27T07:34:52.079Z,9.85
2023-04-27T07:37:22.407Z,9.85
2023-04-27T07:39:53.100Z,9.84
2023-04-27T07:42:22.604Z,9.83
2023-04-27T07:44:54.414Z,9.82
2023-04-27T07:47:22.258Z,9.79
2023-04-27T07:49:50.227Z,9.76
2023-04-27T07:52:18.126Z,9.75
2023-04-27T07:54:45.988Z,9.75
2023-04-27T07:57:13.812Z,9.75
2023-04-27T07:59:41.903Z,9.78
2023-04-27T08:02:19.229Z,9.83
2023-04-27T08:04:49.821Z,9.90
2023-04-27T08:07:18.389Z,10.01
2023-04-27T08:09:46.574Z,10.16
2023-04-27T08:12:14.440Z,10.40
2023-04-27T08:14:42.554Z,10.77
2023-04-27T08:17:11.429Z,11.22
2023-04-27T08:19:39.969Z,11.74
2023-04-27T08:22:08.546Z,12.27
2023-04-27T08:24:36.528Z,12.82
2023-04-27T08:27:06.066Z,13.34
2023-04-27T08:29:34.681Z,13.86
2023-04-27T08:32:04.561Z,14.35
2023-04-27T08:34:35.181Z,14.83
2023-04-27T08:37:04.473Z,15.27
2023-04-27T08:39:32.383Z,15.61
2023-04-27T08:42:00.456Z,15.89
2023-04-27T08:44:28.373Z,16.17
2023-04-27T08:46:56.208Z,16.39
2023-04-27T08:49:24.028Z,16.53
2023-04-27T08:51:51.814Z,16.60
2023-04-27T08:54:19.647Z,16.67
2023-04-27T08:56:47.466Z,16.77
2023-04-27T08:59:16.921Z,16.88
2023-04-27T09:01:48.481Z,16.90
2023-04-27T09:04:17.979Z,16.91
2023-04-27T09:06:46.423Z,16.94
2023-04-27T09:09:25.384Z,17.03
2023-04-27T09:11:53.385Z,17.10
2023-04-27T09:14:23.861Z,17.07
2023-04-27T09:16:59.809Z,16.99
2023-04-27T09:19:29.490Z,16.93
2023-04-27T09:22:11.591Z,16.80
2023-04-27T09:24:50.781Z,16.58
2023-04-27T09:27:22.367Z,16.29
2023-04-27T09:29:50.426Z,16.08
2023-04-27T09:32:20.943Z,16.04
2023-04-27T09:34:48.956Z,16.17
2023-04-27T09:37:16.864Z,16.29
2023-04-27T09:39:45.372Z,16.41
2023-04-27T09:42:13.541Z,16.56
2023-04-27T09:44:41.284Z,16.59
2023-04-27T09:47:10.419Z,16.54
2023-04-27T09:49:38.938Z,16.43
2023-04-27T09:52:06.760Z,16.27
2023-04-27T09:54:34.837Z,16.07
2023-04-27T09:57:32.707Z,15.86
2023-04-27T10:00:13.992Z,15.62
2023-04-27T10:02:53.950Z,15.34
2023-04-27T10:05:40.361Z,15.07
2023-04-27T10:08:09.729Z,14.80
2023-04-27T10:10:48.817Z,14.58
2023-04-27T10:13:24.989Z,14.33
2023-04-27T10:15:53.742Z,14.10
2023-04-27T10:18:31.421Z,13.90
2023-04-27T10:21:11.785Z,13.68
2023-04-27T10:23:51.060Z,13.50
2023-04-27T10:26:27.479Z,13.34
2023-04-27T10:29:09.165Z,13.22
2023-04-27T10:31:44.204Z,13.09
2023-04-27T10:34:21.117Z,12.98
2023-04-27T10:36:49.354Z,12.83
2023-04-27T10:39:19.966Z,12.69
2023-04-27T10:41:52.503Z,12.55
2023-04-27T10:44:30.460Z,12.41
2023-04-27T10:47:01.406Z,12.28
2023-04-27T10:49:30.709Z,12.16
2023-04-27T10:52:00.840Z,12.04
2023-04-27T10:54:29.397Z,11.92
2023-04-27T10:57:10.958Z,11.80
2023-04-27T10:59:54.621Z,11.70
2023-04-27T11:02:27.503Z,11.61
2023-04-27T11:04:56.681Z,11.55
2023-04-27T11:07:26.724Z,11.51
2023-04-27T11:09:55.009Z,11.50
2023-04-27T11:12:24.159Z,11.53
2023-04-27T11:14:58.739Z,11.58
2023-04-27T11:17:30.610Z,11.70
2023-04-27T11:19:58.550Z,12.00
2023-04-27T11:22:26.901Z,12.40
2023-04-27T11:24:54.773Z,12.76
2023-04-27T11:27:24.123Z,12.99
2023-04-27T11:29:52.064Z,13.12
2023-04-27T11:32:21.622Z,13.17
2023-04-27T11:34:54.662Z,13.16
2023-04-27T11:37:26.733Z,13.11
2023-04-27T11:39:54.967Z,13.03
2023-04-27T11:42:25.794Z,12.91
2023-04-27T11:44:59.891Z,12.81
2023-04-27T11:47:30.870Z,12.69
2023-04-27T11:50:01.189Z,12.57
2023-04-27T11:52:33.285Z,12.45
2023-04-27T11:55:04.072Z,12.34
2023-04-27T11:57:36.111Z,12.24
2023-04-27T12:00:14.542Z,12.14
2023-04-27T12:02:44.429Z,12.04
2023-04-27T12:05:13.230Z,11.95
2023-04-27T12:07:42.305Z,11.87
2023-04-27T12:10:10.367Z,11.81
2023-04-27T12:12:38.892Z,11.76
2023-04-27T12:15:08.604Z,11.74
2023-04-27T12:17:36.600Z,11.74
2023-04-27T12:20:06.056Z,11.78
2023-04-27T12:22:33.951Z,11.86
2023-04-27T12:25:01.756Z,11.99
2023-04-27T12:27:29.550Z,12.21
2023-04-27T12:29:59.537Z,12.46
2023-04-27T12:32:28.012Z,12.65
2023-04-27T12:34:55.882Z,12.79
2023-04-27T12:37:25.441Z,12.86
2023-04-27T12:39:54.978Z,12.88
2023-04-27T12:42:24.437Z,12.88
2023-04-27T12:44:53.241Z,12.86
2023-04-27T12:47:42.960Z,12.85
2023-04-27T12:50:10.946Z,12.82
2023-04-27T12:52:38.871Z,12.79
2023-04-27T12:55:13.085Z,12.74
2023-04-27T12:57:49.281Z,12.68
2023-04-27T13:00:17.488Z,12.62
2023-04-27T13:02:46.493Z,12.54
2023-04-27T13:05:14.684Z,12.44
2023-04-27T13:07:42.617Z,12.35
2023-04-27T13:10:12.017Z,12.27
2023-04-27T13:12:40.486Z,12.18
2023-04-27T13:15:09.578Z,12.10
2023-04-27T13:17:37.534Z,12.05
2023-04-27T13:20:07.311Z,12.00
2023-04-27T13:22:35.205Z,11.97
2023-04-27T13:25:03.084Z,11.95
2023-04-27T13:27:30.923Z,11.95
2023-04-27T13:29:58.676Z,11.95
2023-04-27T13:32:26.821Z,11.95
2023-04-27T13:34:54.649Z,11.94
2023-04-27T13:37:23.857Z,11.92
2023-04-27T13:39:51.822Z,11.89
2023-04-27T13:42:19.610Z,11.86
2023-04-27T13:44:47.475Z,11.84
2023-04-27T13:47:15.525Z,11.83
2023-04-27T13:49:43.381Z,11.83
2023-04-27T13:52:11.497Z,11.88
2023-04-27T13:54:39.306Z,11.92
2023-04-27T13:57:07.098Z,11.97
2023-04-27T13:59:34.937Z,12.01
2023-04-27T14:02:03.523Z,12.04
2023-04-27T14:04:32.153Z,12.06
2023-04-27T14:07:00.027Z,12.09
2023-04-27T14:09:28.149Z,12.11
2023-04-27T14:11:57.363Z,12.11
2023-04-27T14:14:25.393Z,12.11
2023-04-27T14:16:53.716Z,12.09
2023-04-27T14:19:21.567Z,12.07
2023-04-27T14:21:50.219Z,12.04
2023-04-27T14:24:18.064Z,12.01
2023-04-27T14:26:47.579Z,12.00
2023-04-27T14:29:15.826Z,11.99
2023-04-27T14:31:46.148Z,11.94
2023-04-27T14:34:17.576Z,11.89
2023-04-27T14:36:46.294Z,11.83
2023-04-27T14:39:14.419Z,11.76
2023-04-27T14:41:42.397Z,11.68
2023-04-27T14:44:10.206Z,11.61
2023-04-27T14:46:38.080Z,11.56
2023-04-27T14:49:05.908Z,11.51
2023-04-27T14:51:33.654Z,11.46
2023-04-27T14:54:02.478Z,11.43
2023-04-27T14:56:30.511Z,11.39
2023-04-27T14:58:58.304Z,11.37
2023-04-27T15:01:26.186Z,11.36
2023-04-27T15:03:55.531Z,11.36
2023-04-27T15:06:27.981Z,11.38
2023-04-27T15:08:56.402Z,11.40
2023-04-27T15:11:24.205Z,11.40
2023-04-27T15:13:52.079Z,11.40
2023-04-27T15:16:20.487Z,11.39
2023-04-27T15:18:48.418Z,11.39
2023-04-27T15:21:16.280Z,11.37
2023-04-27T15:23:44.143Z,11.37
2023-04-27T15:26:11.952Z,11.36
2023-04-27T15:28:39.759Z,11.37
2023-04-27T15:31:08.281Z,11.39
2023-04-27T15:33:36.191Z,11.42
2023-04-27T15:36:04.266Z,11.46
2023-04-27T15:38:32.008Z,11.49
2023-04-27T15:40:59.821Z,11.53
2023-04-27T15:43:27.630Z,11.55
2023-04-27T15:45:55.618Z,11.58
2023-04-27T15:48:23.428Z,11.60
2023-04-27T15:50:51.302Z,11.62
2023-04-27T15:53:19.124Z,11.63
2023-04-27T15:55:46.932Z,11.65
2023-04-27T15:58:16.141Z,11.65
2023-04-27T16:00:44.135Z,11.65
2023-04-27T16:03:14.431Z,11.65
2023-04-27T16:05:42.472Z,11.65
2023-04-27T16:08:12.510Z,11.64
2023-04-27T16:10:40.442Z,11.63
2023-04-27T16:13:08.717Z,11.62
2023-04-27T16:15:36.678Z,11.61
2023-04-27T16:18:04.614Z,11.60
2023-04-27T16:20:33.117Z,11.60
2023-04-27T16:23:03.146Z,11.60
2023-04-27T16:25:31.283Z,11.61
2023-04-27T16:27:59.748Z,11.63
2023-04-27T16:30:29.409Z,11.64
2023-04-27T16:32:57.347Z,11.64
2023-04-27T16:35:25.277Z,11.64
2023-04-27T16:37:54.470Z,11.62
2023-04-27T16:40:22.299Z,11.59
2023-04-27T16:42:50.328Z,11.56
2023-04-27T16:45:18.876Z,11.52
2023-04-27T16:47:47.644Z,11.45
2023-04-27T16:50:15.641Z,11.38
2023-04-27T16:52:43.738Z,11.31
2023-04-27T16:55:11.746Z,11.25
2023-04-27T16:57:39.587Z,11.20
2023-04-27T17:00:09.837Z,11.14
2023-04-27T17:02:38.525Z,11.08
2023-04-27T17:05:07.772Z,11.02
2023-04-27T17:07:35.714Z,10.98
2023-04-27T17:10:05.596Z,10.94
2023-04-27T17:12:33.449Z,10.90
2023-04-27T17:15:02.880Z,10.86
2023-04-27T17:17:35.063Z,10.82
2023-04-27T17:20:03.203Z,10.79
2023-04-27T17:22:32.921Z,10.77
2023-04-27T17:25:00.904Z,10.75
2023-04-27T17:27:33.895Z,10.73
2023-04-27T17:30:01.875Z,10.72
2023-04-27T17:32:29.856Z,10.71
2023-04-27T17:34:57.631Z,10.69
2023-04-27T17:37:25.541Z,10.68
2023-04-27T17:39:54.535Z,10.65
2023-04-27T17:42:22.685Z,10.63
2023-04-27T17:44:50.507Z,10.59
2023-04-27T17:47:22.407Z,10.57
2023-04-27T17:49:50.462Z,10.52
2023-04-27T17:52:20.695Z,10.49
2023-04-27T17:54:48.548Z,10.44
2023-04-27T17:57:16.430Z,10.38
2023-04-27T17:59:45.167Z,10.32
2023-04-27T18:02:16.489Z,10.26
2023-04-27T18:04:44.532Z,10.19
2023-04-27T18:07:12.659Z,10.13
2023-04-27T18:09:40.690Z,10.07
2023-04-27T18:12:11.147Z,10.00
2023-04-27T18:14:39.420Z,9.92
2023-04-27T18:17:07.399Z,9.86
2023-04-27T18:19:35.203Z,9.78
2023-04-27T18:22:03.048Z,9.69
2023-04-27T18:24:31.266Z,9.61
2023-04-27T18:27:00.063Z,9.52
2023-04-27T18:29:28.010Z,9.44
2023-04-27T18:32:01.747Z,9.36
2023-04-27T18:34:29.708Z,9.26
2023-04-27T18:36:57.583Z,9.18
2023-04-27T18:39:27.709Z,9.08
2023-04-27T18:41:57.456Z,8.99
2023-04-27T18:44:25.461Z,8.90
2023-04-27T18:46:53.338Z,8.81
2023-04-27T18:49:21.894Z,8.71
2023-04-27T18:51:49.781Z,8.64
2023-04-27T18:54:17.662Z,8.56
2023-04-27T18:56:45.777Z,8.47
2023-04-27T18:59:13.885Z,8.38
2023-04-27T19:01:42.001Z,8.30
2023-04-27T19:04:10.663Z,8.22
2023-04-27T19:06:38.691Z,8.13
2023-04-27T19:09:06.533Z,8.06
2023-04-27T19:11:34.261Z,7.97
2023-04-27T19:14:02.253Z,7.89
2023-04-27T19:16:30.334Z,8.23
2023-04-27T19:18:58.354Z,10.07
2023-04-27T19:21:26.803Z,11.15
2023-04-27T19:23:54.718Z,10.44
2023-04-27T19:26:22.587Z,9.72
2023-04-27T19:28:50.530Z,9.24
2023-04-27T19:31:18.475Z,8.91
2023-04-27T19:33:47.392Z,8.66
2023-04-27T19:36:23.122Z,8.43
2023-04-27T19:38:51.628Z,8.23
2023-04-27T19:41:19.939Z,8.07
2023-04-27T19:43:49.410Z,7.91
2023-04-27T19:46:17.258Z,7.76
2023-04-27T19:48:45.162Z,8.06
2023-04-27T19:51:12.936Z,9.81
2023-04-27T19:53:40.784Z,10.88
2023-04-27T19:56:08.571Z,10.14
2023-04-27T19:58:37.482Z,9.37
2023-04-27T20:01:06.353Z,8.85
2023-04-27T20:03:53.702Z,8.47
2023-04-27T20:06:28.271Z,8.15
2023-04-27T20:08:56.675Z,7.91
2023-04-27T20:11:25.334Z,7.71
2023-04-27T20:13:53.404Z,7.63
2023-04-27T20:16:25.069Z,8.99
2023-04-27T20:18:52.987Z,10.38
2023-04-27T20:21:21.578Z,9.82
2023-04-27T20:23:49.896Z,9.05
2023-04-27T20:26:17.830Z,8.49
2023-04-27T20:28:45.789Z,8.11
2023-04-27T20:31:16.670Z,7.82
2023-04-27T20:33:47.487Z,7.57
2023-04-27T20:36:18.121Z,7.89
2023-04-27T20:38:46.917Z,9.71
2023-04-27T20:41:15.085Z,10.63
2023-04-27T20:43:44.746Z,9.80
2023-04-27T20:46:13.382Z,8.99
2023-04-27T20:48:41.370Z,8.42
2023-04-27T20:51:09.731Z,8.02
2023-04-27T20:53:38.435Z,7.70
2023-04-27T20:56:07.088Z,7.43
2023-04-27T20:58:35.249Z,7.66
2023-04-27T21:01:03.542Z,9.37
2023-04-27T21:03:31.528Z,10.32
2023-04-27T21:05:59.561Z,9.51
2023-04-27T21:08:28.044Z,8.69
2023-04-27T21:10:57.278Z,8.10
2023-04-27T21:13:25.553Z,7.69
2023-04-27T21:15:53.566Z,7.38
2023-04-27T21:18:29.720Z,7.10
2023-04-27T21:20:58.918Z,7.48
2023-04-27T21:23:27.197Z,9.30
2023-04-27T21:25:55.105Z,10.17
2023-04-27T21:28:23.317Z,9.29
2023-04-27T21:30:51.355Z,8.45
2023-04-27T21:33:19.809Z,7.85
2023-04-27T21:35:48.008Z,7.40
2023-04-27T21:38:16.017Z,7.06
2023-04-27T21:40:43.848Z,6.77
2023-04-27T21:43:11.640Z,7.04
2023-04-27T21:45:39.698Z,8.78
2023-04-27T21:48:07.662Z,9.74
2023-04-27T21:50:35.640Z,8.87
2023-04-27T21:53:03.403Z,8.01
2023-04-27T21:55:31.257Z,7.43
2023-04-27T21:57:59.303Z,7.01
2023-04-27T22:00:27.621Z,6.66
2023-04-27T22:02:57.000Z,7.01
2023-04-27T22:05:29.373Z,8.81
2023-04-27T22:07:57.883Z,9.72
2023-04-27T22:10:25.998Z,8.82
2023-04-27T22:12:54.860Z,7.94
2023-04-27T22:15:23.714Z,7.34
2023-04-27T22:17:51.706Z,6.90
2023-04-27T22:20:19.913Z,7.04
2023-04-27T22:22:48.249Z,8.69
2023-04-27T22:25:16.116Z,9.65
2023-04-27T22:27:45.424Z,8.77
2023-04-27T22:30:14.617Z,7.87
2023-04-27T22:32:42.541Z,7.24
2023-04-27T22:35:24.724Z,6.79
2023-04-27T22:37:57.305Z,6.40
2023-04-27T22:40:25.532Z,6.65
2023-04-27T22:42:55.160Z,8.39
2023-04-27T22:45:23.758Z,9.35
2023-04-27T22:47:51.812Z,8.45
2023-04-27T22:50:19.692Z,7.55
2023-04-27T22:52:48.361Z,6.94
2023-04-27T22:55:16.233Z,6.50
2023-04-27T22:57:44.281Z,6.16
2023-04-27T23:00:12.918Z,6.41
2023-04-27T23:02:41.614Z,8.17
2023-04-27T23:05:10.961Z,8.81
2023-04-27T23:07:41.349Z,7.84
2023-04-27T23:10:10.478Z,7.02
2023-04-27T23:12:38.940Z,6.46
2023-04-27T23:15:07.616Z,6.16
2023-04-27T23:17:35.946Z,7.34
2023-04-27T23:20:26.739Z,8.89
2023-04-27T23:22:56.561Z,8.26
2023-04-27T23:25:24.549Z,7.32
2023-04-27T23:27:53.051Z,6.67
2023-04-27T23:30:22.547Z,6.21
2023-04-27T23:32:50.616Z,6.47
2023-04-27T23:35:18.553Z,8.21
2023-04-27T23:37:46.357Z,8.90
2023-04-27T23:40:14.401Z,7.93
2023-04-27T23:42:42.273Z,7.06
2023-04-27T23:45:10.848Z,6.46
2023-04-27T23:47:38.729Z,6.02
2023-04-27T23:50:07.333Z,5.98
2023-04-27T23:52:35.216Z,7.56
2023-04-27T23:55:03.208Z,8.66
2023-04-27T23:57:31.285Z,7.84
2023-04-27T23:59:59.076Z,6.95
